sensor_id;sensor_type;location;lat;lon;timestamp;temperature;humidity
8953;DHT22;4511;50.890;8.054;2023-04-03T00:01:39;4.80;99.90
8953;DHT22;4511;50.890;8.054;2023-04-03T00:04:06;4.80;99.90
8953;DHT22;4511;50.890;8.054;2023-04-03T00:06:33;4.80;99.90
8953;DHT22;4511;50.890;8.054;2023-04-03T00:09:01;4.80;99.90
8953;DHT22;4511;50.890;8.054;2023-04-03T00:11:29;4.70;99.90
8953;DHT22;4511;50.890;8.054;2023-04-03T00:13:56;4.80;99.90
8953;DHT22;4511;50.890;8.054;2023-04-03T00:16:23;4.80;99.90
8953;DHT22;4511;50.890;8.054;2023-04-03T00:18:50;4.80;99.90
8953;DHT22;4511;50.890;8.054;2023-04-03T00:21:16;4.70;99.90
8953;DHT22;4511;50.890;8.054;2023-04-03T00:23:43;4.70;99.90
8953;DHT22;4511;50.890;8.054;2023-04-03T00:26:10;4.80;99.90
8953;DHT22;4511;50.890;8.054;2023-04-03T00:28:38;4.80;99.90
8953;DHT22;4511;50.890;8.054;2023-04-03T00:31:05;4.70;99.90
8953;DHT22;4511;50.890;8.054;2023-04-03T00:33:32;4.60;99.90
8953;DHT22;4511;50.890;8.054;2023-04-03T00:35:59;4.70;99.90
8953;DHT22;4511;50.890;8.054;2023-04-03T00:38:31;4.70;99.90
8953;DHT22;4511;50.890;8.054;2023-04-03T00:40:58;4.70;99.90
8953;DHT22;4511;50.890;8.054;2023-04-03T00:43:25;4.70;99.90
8953;DHT22;4511;50.890;8.054;2023-04-03T00:45:55;4.70;99.90
8953;DHT22;4511;50.890;8.054;2023-04-03T00:48:25;4.80;99.90
8953;DHT22;4511;50.890;8.054;2023-04-03T00:50:52;4.70;99.90
8953;DHT22;4511;50.890;8.054;2023-04-03T00:53:23;4.80;99.90
8953;DHT22;4511;50.890;8.054;2023-04-03T00:55:51;4.70;99.90
8953;DHT22;4511;50.890;8.054;2023-04-03T00:58:22;4.70;99.90
8953;DHT22;4511;50.890;8.054;2023-04-03T01:00:55;4.70;99.90
8953;DHT22;4511;50.890;8.054;2023-04-03T01:03:24;4.70;99.90
8953;DHT22;4511;50.890;8.054;2023-04-03T01:05:51;4.70;99.90
8953;DHT22;4511;50.890;8.054;2023-04-03T01:08:18;4.70;99.90
8953;DHT22;4511;50.890;8.054;2023-04-03T01:10:44;4.70;99.90
8953;DHT22;4511;50.890;8.054;2023-04-03T01:13:20;4.70;99.90
8953;DHT22;4511;50.890;8.054;2023-04-03T01:15:47;4.60;99.90
8953;DHT22;4511;50.890;8.054;2023-04-03T01:18:16;4.60;99.90
8953;DHT22;4511;50.890;8.054;2023-04-03T01:21:36;4.50;99.90
8953;DHT22;4511;50.890;8.054;2023-04-03T01:24:22;4.60;99.90
8953;DHT22;4511;50.890;8.054;2023-04-03T01:26:51;4.60;99.90
8953;DHT22;4511;50.890;8.054;2023-04-03T01:29:18;4.60;99.90
8953;DHT22;4511;50.890;8.054;2023-04-03T01:31:49;4.60;99.90
8953;DHT22;4511;50.890;8.054;2023-04-03T01:34:16;4.50;99.90
8953;DHT22;4511;50.890;8.054;2023-04-03T01:36:42;4.50;99.90
8953;DHT22;4511;50.890;8.054;2023-04-03T01:39:10;4.50;99.90
8953;DHT22;4511;50.890;8.054;2023-04-03T01:41:39;4.50;99.90
8953;DHT22;4511;50.890;8.054;2023-04-03T01:44:05;4.40;99.90
8953;DHT22;4511;50.890;8.054;2023-04-03T01:46:33;4.40;99.90
8953;DHT22;4511;50.890;8.054;2023-04-03T01:49:02;4.30;99.90
8953;DHT22;4511;50.890;8.054;2023-04-03T01:51:29;4.30;99.90
8953;DHT22;4511;50.890;8.054;2023-04-03T01:53:56;4.30;99.90
8953;DHT22;4511;50.890;8.054;2023-04-03T01:56:23;4.20;99.90
8953;DHT22;4511;50.890;8.054;2023-04-03T01:58:50;4.20;99.90
8953;DHT22;4511;50.890;8.054;2023-04-03T02:01:17;4.20;99.90
8953;DHT22;4511;50.890;8.054;2023-04-03T02:03:44;4.20;99.90
8953;DHT22;4511;50.890;8.054;2023-04-03T02:06:12;4.10;99.90
8953;DHT22;4511;50.890;8.054;2023-04-03T02:08:39;4.10;99.90
8953;DHT22;4511;50.890;8.054;2023-04-03T02:11:07;4.00;99.90
8953;DHT22;4511;50.890;8.054;2023-04-03T02:13:33;3.90;99.90
8953;DHT22;4511;50.890;8.054;2023-04-03T02:16:06;3.90;99.90
8953;DHT22;4511;50.890;8.054;2023-04-03T02:18:33;3.90;99.90
8953;DHT22;4511;50.890;8.054;2023-04-03T02:21:00;3.80;99.90
8953;DHT22;4511;50.890;8.054;2023-04-03T02:23:28;3.80;99.90
8953;DHT22;4511;50.890;8.054;2023-04-03T02:26:03;3.90;99.90
8953;DHT22;4511;50.890;8.054;2023-04-03T02:28:30;3.80;99.90
8953;DHT22;4511;50.890;8.054;2023-04-03T02:30:57;3.70;99.90
8953;DHT22;4511;50.890;8.054;2023-04-03T02:33:24;3.60;99.90
8953;DHT22;4511;50.890;8.054;2023-04-03T02:35:53;3.60;99.90
8953;DHT22;4511;50.890;8.054;2023-04-03T02:38:20;3.50;99.90
8953;DHT22;4511;50.890;8.054;2023-04-03T02:40:48;3.50;99.90
8953;DHT22;4511;50.890;8.054;2023-04-03T02:43:14;3.30;99.90
8953;DHT22;4511;50.890;8.054;2023-04-03T02:45:41;3.30;99.90
8953;DHT22;4511;50.890;8.054;2023-04-03T02:48:08;3.30;99.90
8953;DHT22;4511;50.890;8.054;2023-04-03T02:50:35;3.30;99.90
8953;DHT22;4511;50.890;8.054;2023-04-03T02:53:02;3.20;99.90
8953;DHT22;4511;50.890;8.054;2023-04-03T02:55:29;3.30;99.90
8953;DHT22;4511;50.890;8.054;2023-04-03T02:57:57;3.40;99.90
8953;DHT22;4511;50.890;8.054;2023-04-03T03:00:23;3.30;99.90
8953;DHT22;4511;50.890;8.054;2023-04-03T03:02:50;3.30;99.90
8953;DHT22;4511;50.890;8.054;2023-04-03T03:05:17;3.30;99.90
8953;DHT22;4511;50.890;8.054;2023-04-03T03:07:44;3.30;99.90
8953;DHT22;4511;50.890;8.054;2023-04-03T03:10:11;3.20;99.90
8953;DHT22;4511;50.890;8.054;2023-04-03T03:12:37;3.20;99.90
8953;DHT22;4511;50.890;8.054;2023-04-03T03:15:08;3.20;99.90
8953;DHT22;4511;50.890;8.054;2023-04-03T03:17:35;3.10;99.90
8953;DHT22;4511;50.890;8.054;2023-04-03T03:20:02;3.00;99.90
8953;DHT22;4511;50.890;8.054;2023-04-03T03:22:29;3.20;99.90
8953;DHT22;4511;50.890;8.054;2023-04-03T03:24:56;3.10;99.90
8953;DHT22;4511;50.890;8.054;2023-04-03T03:27:23;3.10;99.90
8953;DHT22;4511;50.890;8.054;2023-04-03T03:29:50;3.10;99.90
8953;DHT22;4511;50.890;8.054;2023-04-03T03:32:18;3.00;99.90
8953;DHT22;4511;50.890;8.054;2023-04-03T03:34:45;3.00;99.90
8953;DHT22;4511;50.890;8.054;2023-04-03T03:37:12;3.00;99.90
8953;DHT22;4511;50.890;8.054;2023-04-03T03:39:38;2.90;99.90
8953;DHT22;4511;50.890;8.054;2023-04-03T03:42:05;2.90;99.90
8953;DHT22;4511;50.890;8.054;2023-04-03T03:44:32;2.90;99.90
8953;DHT22;4511;50.890;8.054;2023-04-03T03:46:59;2.90;99.90
8953;DHT22;4511;50.890;8.054;2023-04-03T03:49:27;2.80;99.90
8953;DHT22;4511;50.890;8.054;2023-04-03T03:51:54;2.90;99.90
8953;DHT22;4511;50.890;8.054;2023-04-03T03:54:21;2.90;99.90
8953;DHT22;4511;50.890;8.054;2023-04-03T03:56:47;2.90;99.90
8953;DHT22;4511;50.890;8.054;2023-04-03T03:59:14;2.90;99.90
8953;DHT22;4511;50.890;8.054;2023-04-03T04:01:41;2.90;99.90
8953;DHT22;4511;50.890;8.054;2023-04-03T04:04:08;2.90;99.90
8953;DHT22;4511;50.890;8.054;2023-04-03T04:06:36;2.90;99.90
8953;DHT22;4511;50.890;8.054;2023-04-03T04:09:03;2.70;99.90
8953;DHT22;4511;50.890;8.054;2023-04-03T04:11:30;2.70;99.90
8953;DHT22;4511;50.890;8.054;2023-04-03T04:13:58;2.80;99.90
8953;DHT22;4511;50.890;8.054;2023-04-03T04:16:25;2.70;99.90
8953;DHT22;4511;50.890;8.054;2023-04-03T04:18:52;2.80;99.90
8953;DHT22;4511;50.890;8.054;2023-04-03T04:21:18;2.80;99.90
8953;DHT22;4511;50.890;8.054;2023-04-03T04:23:47;2.80;99.90
8953;DHT22;4511;50.890;8.054;2023-04-03T04:26:13;2.80;99.90
8953;DHT22;4511;50.890;8.054;2023-04-03T04:28:40;2.80;99.90
8953;DHT22;4511;50.890;8.054;2023-04-03T04:31:07;2.70;99.90
8953;DHT22;4511;50.890;8.054;2023-04-03T04:33:34;2.80;99.90
8953;DHT22;4511;50.890;8.054;2023-04-03T04:36:01;2.80;99.90
8953;DHT22;4511;50.890;8.054;2023-04-03T04:38:28;2.80;99.90
8953;DHT22;4511;50.890;8.054;2023-04-03T04:40:56;2.80;99.90
8953;DHT22;4511;50.890;8.054;2023-04-03T04:43:23;2.80;99.90
8953;DHT22;4511;50.890;8.054;2023-04-03T04:46:00;2.70;99.90
8953;DHT22;4511;50.890;8.054;2023-04-03T04:48:27;2.70;99.90
8953;DHT22;4511;50.890;8.054;2023-04-03T04:50:54;2.60;99.90
8953;DHT22;4511;50.890;8.054;2023-04-03T04:53:21;2.60;99.90
8953;DHT22;4511;50.890;8.054;2023-04-03T04:55:47;2.50;99.90
8953;DHT22;4511;50.890;8.054;2023-04-03T04:58:16;2.40;99.90
8953;DHT22;4511;50.890;8.054;2023-04-03T05:00:42;2.50;99.90
8953;DHT22;4511;50.890;8.054;2023-04-03T05:03:09;2.50;99.90
8953;DHT22;4511;50.890;8.054;2023-04-03T05:05:36;2.50;99.90
8953;DHT22;4511;50.890;8.054;2023-04-03T05:08:03;2.50;99.90
8953;DHT22;4511;50.890;8.054;2023-04-03T05:10:30;2.50;99.90
8953;DHT22;4511;50.890;8.054;2023-04-03T05:12:57;2.50;99.90
8953;DHT22;4511;50.890;8.054;2023-04-03T05:15:25;3.10;99.90
8953;DHT22;4511;50.890;8.054;2023-04-03T05:17:52;2.70;99.90
8953;DHT22;4511;50.890;8.054;2023-04-03T05:20:19;2.50;99.90
8953;DHT22;4511;50.890;8.054;2023-04-03T05:22:46;2.40;99.90
8953;DHT22;4511;50.890;8.054;2023-04-03T05:25:12;2.40;99.90
8953;DHT22;4511;50.890;8.054;2023-04-03T05:27:39;2.40;99.90
8953;DHT22;4511;50.890;8.054;2023-04-03T05:30:07;2.30;99.90
8953;DHT22;4511;50.890;8.054;2023-04-03T05:32:35;2.40;99.90
8953;DHT22;4511;50.890;8.054;2023-04-03T05:35:02;2.30;99.90
8953;DHT22;4511;50.890;8.054;2023-04-03T05:37:29;2.40;99.90
8953;DHT22;4511;50.890;8.054;2023-04-03T05:39:56;2.30;99.90
8953;DHT22;4511;50.890;8.054;2023-04-03T05:42:23;2.40;99.90
8953;DHT22;4511;50.890;8.054;2023-04-03T05:44:50;2.30;99.90
8953;DHT22;4511;50.890;8.054;2023-04-03T05:47:17;2.40;99.90
8953;DHT22;4511;50.890;8.054;2023-04-03T05:49:45;2.30;99.90
8953;DHT22;4511;50.890;8.054;2023-04-03T05:52:18;2.30;99.90
8953;DHT22;4511;50.890;8.054;2023-04-03T05:54:46;2.30;99.90
8953;DHT22;4511;50.890;8.054;2023-04-03T05:57:13;2.40;99.90
8953;DHT22;4511;50.890;8.054;2023-04-03T05:59:41;2.40;99.90
8953;DHT22;4511;50.890;8.054;2023-04-03T06:02:10;2.40;99.90
8953;DHT22;4511;50.890;8.054;2023-04-03T06:04:37;2.30;99.90
8953;DHT22;4511;50.890;8.054;2023-04-03T06:07:05;2.30;99.90
8953;DHT22;4511;50.890;8.054;2023-04-03T06:09:34;2.20;99.90
8953;DHT22;4511;50.890;8.054;2023-04-03T06:12:01;2.30;99.90
8953;DHT22;4511;50.890;8.054;2023-04-03T06:14:28;2.40;99.90
8953;DHT22;4511;50.890;8.054;2023-04-03T06:16:55;2.40;99.90
8953;DHT22;4511;50.890;8.054;2023-04-03T06:19:22;2.50;99.90
8953;DHT22;4511;50.890;8.054;2023-04-03T06:21:49;2.50;99.90
8953;DHT22;4511;50.890;8.054;2023-04-03T06:24:17;2.40;99.90
8953;DHT22;4511;50.890;8.054;2023-04-03T06:26:45;2.50;99.90
8953;DHT22;4511;50.890;8.054;2023-04-03T06:29:12;2.60;99.90
8953;DHT22;4511;50.890;8.054;2023-04-03T06:31:38;2.70;99.90
8953;DHT22;4511;50.890;8.054;2023-04-03T06:34:06;2.70;99.90
8953;DHT22;4511;50.890;8.054;2023-04-03T06:36:33;2.70;99.90
8953;DHT22;4511;50.890;8.054;2023-04-03T06:39:00;2.80;99.90
8953;DHT22;4511;50.890;8.054;2023-04-03T06:41:28;2.90;99.90
8953;DHT22;4511;50.890;8.054;2023-04-03T06:43:55;2.90;99.90
8953;DHT22;4511;50.890;8.054;2023-04-03T06:46:24;3.00;99.90
8953;DHT22;4511;50.890;8.054;2023-04-03T06:48:51;3.00;99.90
8953;DHT22;4511;50.890;8.054;2023-04-03T06:51:20;3.00;99.90
8953;DHT22;4511;50.890;8.054;2023-04-03T06:53:48;3.10;99.90
8953;DHT22;4511;50.890;8.054;2023-04-03T06:56:15;3.00;99.90
8953;DHT22;4511;50.890;8.054;2023-04-03T06:58:43;3.10;99.90
8953;DHT22;4511;50.890;8.054;2023-04-03T07:01:11;3.00;99.90
8953;DHT22;4511;50.890;8.054;2023-04-03T07:03:39;2.90;99.90
8953;DHT22;4511;50.890;8.054;2023-04-03T07:06:07;2.80;99.90
8953;DHT22;4511;50.890;8.054;2023-04-03T07:08:34;2.70;99.90
8953;DHT22;4511;50.890;8.054;2023-04-03T07:11:01;2.70;99.90
8953;DHT22;4511;50.890;8.054;2023-04-03T07:13:28;2.70;99.90
8953;DHT22;4511;50.890;8.054;2023-04-03T07:15:56;2.60;99.90
8953;DHT22;4511;50.890;8.054;2023-04-03T07:18:23;2.60;99.90
8953;DHT22;4511;50.890;8.054;2023-04-03T07:20:51;2.70;99.90
8953;DHT22;4511;50.890;8.054;2023-04-03T07:23:17;2.80;99.90
8953;DHT22;4511;50.890;8.054;2023-04-03T07:25:45;2.80;99.90
8953;DHT22;4511;50.890;8.054;2023-04-03T07:28:12;2.80;99.90
8953;DHT22;4511;50.890;8.054;2023-04-03T07:30:43;2.80;99.90
8953;DHT22;4511;50.890;8.054;2023-04-03T07:33:12;2.80;99.90
8953;DHT22;4511;50.890;8.054;2023-04-03T07:35:40;2.90;99.90
8953;DHT22;4511;50.890;8.054;2023-04-03T07:38:06;3.00;99.90
8953;DHT22;4511;50.890;8.054;2023-04-03T07:40:33;3.00;99.90
8953;DHT22;4511;50.890;8.054;2023-04-03T07:43:00;3.10;99.90
8953;DHT22;4511;50.890;8.054;2023-04-03T07:45:27;3.10;99.90
8953;DHT22;4511;50.890;8.054;2023-04-03T07:47:54;3.00;99.90
8953;DHT22;4511;50.890;8.054;2023-04-03T07:50:23;2.90;99.90
8953;DHT22;4511;50.890;8.054;2023-04-03T07:52:50;2.90;99.90
8953;DHT22;4511;50.890;8.054;2023-04-03T07:55:19;2.90;99.90
8953;DHT22;4511;50.890;8.054;2023-04-03T07:57:46;2.90;99.90
8953;DHT22;4511;50.890;8.054;2023-04-03T08:00:14;2.90;99.90
8953;DHT22;4511;50.890;8.054;2023-04-03T08:02:43;2.90;99.90
8953;DHT22;4511;50.890;8.054;2023-04-03T08:05:15;3.00;99.90
8953;DHT22;4511;50.890;8.054;2023-04-03T08:07:43;3.10;99.90
8953;DHT22;4511;50.890;8.054;2023-04-03T08:10:10;3.20;99.90
8953;DHT22;4511;50.890;8.054;2023-04-03T08:12:37;3.40;99.90
8953;DHT22;4511;50.890;8.054;2023-04-03T08:15:05;3.30;99.90
8953;DHT22;4511;50.890;8.054;2023-04-03T08:17:32;3.20;99.90
8953;DHT22;4511;50.890;8.054;2023-04-03T08:19:59;3.00;99.90
8953;DHT22;4511;50.890;8.054;2023-04-03T08:22:26;2.90;99.90
8953;DHT22;4511;50.890;8.054;2023-04-03T08:24:54;3.00;99.90
8953;DHT22;4511;50.890;8.054;2023-04-03T08:27:20;3.10;99.90
8953;DHT22;4511;50.890;8.054;2023-04-03T08:29:47;3.30;99.90
8953;DHT22;4511;50.890;8.054;2023-04-03T08:32:14;3.40;99.90
8953;DHT22;4511;50.890;8.054;2023-04-03T08:34:41;3.50;99.90
8953;DHT22;4511;50.890;8.054;2023-04-03T08:37:08;3.60;99.90
8953;DHT22;4511;50.890;8.054;2023-04-03T08:39:35;3.70;99.90
8953;DHT22;4511;50.890;8.054;2023-04-03T08:42:10;3.70;99.90
8953;DHT22;4511;50.890;8.054;2023-04-03T08:44:46;3.70;99.90
8953;DHT22;4511;50.890;8.054;2023-04-03T08:47:21;4.00;99.90
8953;DHT22;4511;50.890;8.054;2023-04-03T08:49:52;4.10;99.90
8953;DHT22;4511;50.890;8.054;2023-04-03T08:52:22;4.10;99.90
8953;DHT22;4511;50.890;8.054;2023-04-03T08:54:53;4.20;99.90
8953;DHT22;4511;50.890;8.054;2023-04-03T08:57:29;4.30;99.90
8953;DHT22;4511;50.890;8.054;2023-04-03T08:59:58;4.40;99.90
8953;DHT22;4511;50.890;8.054;2023-04-03T09:02:29;4.40;99.90
8953;DHT22;4511;50.890;8.054;2023-04-03T09:04:58;4.50;99.90
8953;DHT22;4511;50.890;8.054;2023-04-03T09:07:33;4.60;99.90
8953;DHT22;4511;50.890;8.054;2023-04-03T09:10:03;4.70;99.90
8953;DHT22;4511;50.890;8.054;2023-04-03T09:12:37;4.70;99.90
8953;DHT22;4511;50.890;8.054;2023-04-03T09:15:10;4.90;99.90
8953;DHT22;4511;50.890;8.054;2023-04-03T09:17:45;4.90;99.90
8953;DHT22;4511;50.890;8.054;2023-04-03T09:20:19;5.00;99.90
8953;DHT22;4511;50.890;8.054;2023-04-03T09:22:50;5.20;99.90
8953;DHT22;4511;50.890;8.054;2023-04-03T09:25:20;5.40;99.90
8953;DHT22;4511;50.890;8.054;2023-04-03T09:27:50;5.50;99.90
8953;DHT22;4511;50.890;8.054;2023-04-03T09:30:18;5.70;99.90
8953;DHT22;4511;50.890;8.054;2023-04-03T09:32:47;5.80;99.80
8953;DHT22;4511;50.890;8.054;2023-04-03T09:35:19;6.00;99.90
8953;DHT22;4511;50.890;8.054;2023-04-03T09:37:48;6.00;97.80
8953;DHT22;4511;50.890;8.054;2023-04-03T09:40:32;6.20;99.40
8953;DHT22;4511;50.890;8.054;2023-04-03T09:43:23;6.50;98.40
8953;DHT22;4511;50.890;8.054;2023-04-03T09:45:51;6.60;96.30
8953;DHT22;4511;50.890;8.054;2023-04-03T09:48:20;6.80;96.40
8953;DHT22;4511;50.890;8.054;2023-04-03T09:51:00;7.00;95.50
8953;DHT22;4511;50.890;8.054;2023-04-03T09:53:37;7.10;93.00
8953;DHT22;4511;50.890;8.054;2023-04-03T09:56:18;7.30;92.70
8953;DHT22;4511;50.890;8.054;2023-04-03T09:58:49;7.40;91.70
8953;DHT22;4511;50.890;8.054;2023-04-03T10:01:28;7.50;88.50
8953;DHT22;4511;50.890;8.054;2023-04-03T10:04:06;7.40;85.80
8953;DHT22;4511;50.890;8.054;2023-04-03T10:06:35;7.10;83.40
8953;DHT22;4511;50.890;8.054;2023-04-03T10:09:05;7.40;84.50
8953;DHT22;4511;50.890;8.054;2023-04-03T10:11:32;7.50;82.60
8953;DHT22;4511;50.890;8.054;2023-04-03T10:14:02;7.50;78.80
8953;DHT22;4511;50.890;8.054;2023-04-03T10:16:36;7.60;81.00
8953;DHT22;4511;50.890;8.054;2023-04-03T10:19:29;7.80;79.90
8953;DHT22;4511;50.890;8.054;2023-04-03T10:21:59;8.00;80.90
8953;DHT22;4511;50.890;8.054;2023-04-03T10:24:36;8.10;80.30
8953;DHT22;4511;50.890;8.054;2023-04-03T10:27:06;8.30;79.90
8953;DHT22;4511;50.890;8.054;2023-04-03T10:29:43;8.80;81.50
8953;DHT22;4511;50.890;8.054;2023-04-03T10:32:24;9.10;84.50
8953;DHT22;4511;50.890;8.054;2023-04-03T10:34:59;9.20;80.70
8953;DHT22;4511;50.890;8.054;2023-04-03T10:37:33;9.40;77.90
8953;DHT22;4511;50.890;8.054;2023-04-03T10:40:20;9.50;76.90
8953;DHT22;4511;50.890;8.054;2023-04-03T10:42:55;9.70;77.10
8953;DHT22;4511;50.890;8.054;2023-04-03T10:45:29;9.60;76.10
8953;DHT22;4511;50.890;8.054;2023-04-03T10:48:04;10.00;74.40
8953;DHT22;4511;50.890;8.054;2023-04-03T10:50:39;10.10;75.60
8953;DHT22;4511;50.890;8.054;2023-04-03T10:53:14;10.10;72.30
8953;DHT22;4511;50.890;8.054;2023-04-03T10:55:48;10.30;75.90
8953;DHT22;4511;50.890;8.054;2023-04-03T10:58:21;10.00;71.00
8953;DHT22;4511;50.890;8.054;2023-04-03T11:00:54;10.00;74.10
8953;DHT22;4511;50.890;8.054;2023-04-03T11:03:29;9.30;74.60
8953;DHT22;4511;50.890;8.054;2023-04-03T11:05:58;9.60;77.60
8953;DHT22;4511;50.890;8.054;2023-04-03T11:08:28;9.70;74.80
8953;DHT22;4511;50.890;8.054;2023-04-03T11:11:01;10.00;74.00
8953;DHT22;4511;50.890;8.054;2023-04-03T11:13:33;10.20;72.90
8953;DHT22;4511;50.890;8.054;2023-04-03T11:16:02;10.20;69.00
8953;DHT22;4511;50.890;8.054;2023-04-03T11:18:34;10.20;69.80
8953;DHT22;4511;50.890;8.054;2023-04-03T11:21:06;9.70;69.90
8953;DHT22;4511;50.890;8.054;2023-04-03T11:23:36;9.40;69.80
8953;DHT22;4511;50.890;8.054;2023-04-03T11:26:09;8.90;70.30
8953;DHT22;4511;50.890;8.054;2023-04-03T11:28:37;9.30;70.90
8953;DHT22;4511;50.890;8.054;2023-04-03T11:31:13;9.90;69.80
8953;DHT22;4511;50.890;8.054;2023-04-03T11:33:49;10.30;68.50
8953;DHT22;4511;50.890;8.054;2023-04-03T11:36:22;10.50;63.90
8953;DHT22;4511;50.890;8.054;2023-04-03T11:38:52;10.70;64.60
8953;DHT22;4511;50.890;8.054;2023-04-03T11:41:26;10.30;61.20
8953;DHT22;4511;50.890;8.054;2023-04-03T11:43:58;10.40;61.90
8953;DHT22;4511;50.890;8.054;2023-04-03T11:46:52;10.90;62.50
8953;DHT22;4511;50.890;8.054;2023-04-03T11:49:58;11.00;62.80
8953;DHT22;4511;50.890;8.054;2023-04-03T11:52:57;11.00;59.70
8953;DHT22;4511;50.890;8.054;2023-04-03T11:58:40;11.40;59.70
8953;DHT22;4511;50.890;8.054;2023-04-03T12:01:46;11.70;61.70
8953;DHT22;4511;50.890;8.054;2023-04-03T12:04:14;11.70;59.90
8953;DHT22;4511;50.890;8.054;2023-04-03T12:07:11;11.90;60.20
8953;DHT22;4511;50.890;8.054;2023-04-03T12:10:15;11.90;61.80
8953;DHT22;4511;50.890;8.054;2023-04-03T12:12:55;12.10;60.30
8953;DHT22;4511;50.890;8.054;2023-04-03T12:15:52;12.30;58.20
8953;DHT22;4511;50.890;8.054;2023-04-03T12:18:41;12.50;58.20
8953;DHT22;4511;50.890;8.054;2023-04-03T12:21:08;12.70;57.00
8953;DHT22;4511;50.890;8.054;2023-04-03T12:23:36;12.80;56.10
8953;DHT22;4511;50.890;8.054;2023-04-03T12:26:20;12.80;55.50
8953;DHT22;4511;50.890;8.054;2023-04-03T12:28:50;12.90;54.60
8953;DHT22;4511;50.890;8.054;2023-04-03T12:31:18;13.00;54.60
8953;DHT22;4511;50.890;8.054;2023-04-03T12:33:58;13.00;55.50
8953;DHT22;4511;50.890;8.054;2023-04-03T12:36:37;13.00;53.50
8953;DHT22;4511;50.890;8.054;2023-04-03T12:39:16;13.00;55.00
8953;DHT22;4511;50.890;8.054;2023-04-03T12:41:52;13.50;54.60
8953;DHT22;4511;50.890;8.054;2023-04-03T12:44:35;14.00;52.50
8953;DHT22;4511;50.890;8.054;2023-04-03T12:47:21;14.30;54.20
8953;DHT22;4511;50.890;8.054;2023-04-03T12:49:50;14.00;51.70
8953;DHT22;4511;50.890;8.054;2023-04-03T12:52:23;14.60;53.30
8953;DHT22;4511;50.890;8.054;2023-04-03T12:54:53;14.50;63.40
8953;DHT22;4511;50.890;8.054;2023-04-03T12:57:25;13.80;57.60
8953;DHT22;4511;50.890;8.054;2023-04-03T12:59:53;13.60;56.50
8953;DHT22;4511;50.890;8.054;2023-04-03T13:02:23;13.60;53.80
8953;DHT22;4511;50.890;8.054;2023-04-03T13:04:54;13.80;52.50
8953;DHT22;4511;50.890;8.054;2023-04-03T13:07:26;14.00;51.70
8953;DHT22;4511;50.890;8.054;2023-04-03T13:10:04;14.00;50.70
8953;DHT22;4511;50.890;8.054;2023-04-03T13:12:47;14.40;52.00
8953;DHT22;4511;50.890;8.054;2023-04-03T13:15:17;14.40;50.20
8953;DHT22;4511;50.890;8.054;2023-04-03T13:17:45;14.50;51.30
8953;DHT22;4511;50.890;8.054;2023-04-03T13:20:19;14.80;52.70
8953;DHT22;4511;50.890;8.054;2023-04-03T13:22:51;15.20;49.50
8953;DHT22;4511;50.890;8.054;2023-04-03T13:25:20;15.10;47.60
8953;DHT22;4511;50.890;8.054;2023-04-03T13:27:47;15.40;47.40
8953;DHT22;4511;50.890;8.054;2023-04-03T13:30:33;15.20;46.00
8953;DHT22;4511;50.890;8.054;2023-04-03T13:33:03;15.10;45.70
8953;DHT22;4511;50.890;8.054;2023-04-03T13:35:38;15.10;46.80
8953;DHT22;4511;50.890;8.054;2023-04-03T13:38:21;15.80;48.50
8953;DHT22;4511;50.890;8.054;2023-04-03T13:40:49;15.80;45.00
8953;DHT22;4511;50.890;8.054;2023-04-03T13:43:19;16.30;45.20
8953;DHT22;4511;50.890;8.054;2023-04-03T13:46:01;16.50;45.30
8953;DHT22;4511;50.890;8.054;2023-04-03T13:48:39;16.10;45.00
8953;DHT22;4511;50.890;8.054;2023-04-03T13:51:19;16.20;45.80
8953;DHT22;4511;50.890;8.054;2023-04-03T13:53:48;16.70;45.90
8953;DHT22;4511;50.890;8.054;2023-04-03T13:56:23;17.20;46.50
8953;DHT22;4511;50.890;8.054;2023-04-03T13:59:05;17.10;45.60
8953;DHT22;4511;50.890;8.054;2023-04-03T14:01:37;16.70;45.90
8953;DHT22;4511;50.890;8.054;2023-04-03T14:04:14;16.50;45.60
8953;DHT22;4511;50.890;8.054;2023-04-03T14:06:43;16.20;46.00
8953;DHT22;4511;50.890;8.054;2023-04-03T14:09:10;15.40;44.90
8953;DHT22;4511;50.890;8.054;2023-04-03T14:11:37;14.80;45.20
8953;DHT22;4511;50.890;8.054;2023-04-03T14:14:09;15.70;45.70
8953;DHT22;4511;50.890;8.054;2023-04-03T14:16:40;16.00;44.50
8953;DHT22;4511;50.890;8.054;2023-04-03T14:19:14;16.50;43.10
8953;DHT22;4511;50.890;8.054;2023-04-03T14:21:44;16.90;44.40
8953;DHT22;4511;50.890;8.054;2023-04-03T14:24:11;17.50;43.70
8953;DHT22;4511;50.890;8.054;2023-04-03T14:26:38;17.10;46.60
8953;DHT22;4511;50.890;8.054;2023-04-03T14:29:04;17.00;50.90
8953;DHT22;4511;50.890;8.054;2023-04-03T14:31:31;16.60;50.20
8953;DHT22;4511;50.890;8.054;2023-04-03T14:33:58;16.20;45.50
8953;DHT22;4511;50.890;8.054;2023-04-03T14:36:27;16.20;43.50
8953;DHT22;4511;50.890;8.054;2023-04-03T14:38:56;17.10;44.20
8953;DHT22;4511;50.890;8.054;2023-04-03T14:41:24;17.50;43.00
8953;DHT22;4511;50.890;8.054;2023-04-03T14:43:52;17.70;42.70
8953;DHT22;4511;50.890;8.054;2023-04-03T14:46:24;17.40;43.20
8953;DHT22;4511;50.890;8.054;2023-04-03T14:48:52;17.50;42.20
8953;DHT22;4511;50.890;8.054;2023-04-03T14:51:18;16.80;51.00
8953;DHT22;4511;50.890;8.054;2023-04-03T14:53:47;15.80;42.60
8953;DHT22;4511;50.890;8.054;2023-04-03T14:56:17;16.30;43.20
8953;DHT22;4511;50.890;8.054;2023-04-03T14:58:47;16.40;41.80
8953;DHT22;4511;50.890;8.054;2023-04-03T15:01:16;16.90;42.30
8953;DHT22;4511;50.890;8.054;2023-04-03T15:03:43;17.40;40.70
8953;DHT22;4511;50.890;8.054;2023-04-03T15:06:11;17.90;40.40
8953;DHT22;4511;50.890;8.054;2023-04-03T15:08:39;18.50;40.40
8953;DHT22;4511;50.890;8.054;2023-04-03T15:11:08;18.30;39.10
8953;DHT22;4511;50.890;8.054;2023-04-03T15:13:37;18.30;38.70
8953;DHT22;4511;50.890;8.054;2023-04-03T15:16:04;17.40;37.40
8953;DHT22;4511;50.890;8.054;2023-04-03T15:18:36;17.40;37.80
8953;DHT22;4511;50.890;8.054;2023-04-03T15:21:04;17.70;38.50
8953;DHT22;4511;50.890;8.054;2023-04-03T15:23:31;18.00;37.80
8953;DHT22;4511;50.890;8.054;2023-04-03T15:25:57;18.20;37.70
8953;DHT22;4511;50.890;8.054;2023-04-03T15:28:28;18.40;38.40
8953;DHT22;4511;50.890;8.054;2023-04-03T15:30:58;18.80;38.20
8953;DHT22;4511;50.890;8.054;2023-04-03T15:33:25;18.30;38.70
8953;DHT22;4511;50.890;8.054;2023-04-03T15:35:52;18.30;37.80
8953;DHT22;4511;50.890;8.054;2023-04-03T15:38:19;18.80;39.30
8953;DHT22;4511;50.890;8.054;2023-04-03T15:40:46;19.00;38.50
8953;DHT22;4511;50.890;8.054;2023-04-03T15:43:14;19.40;39.20
8953;DHT22;4511;50.890;8.054;2023-04-03T15:45:43;19.20;38.80
8953;DHT22;4511;50.890;8.054;2023-04-03T15:48:12;18.90;39.50
8953;DHT22;4511;50.890;8.054;2023-04-03T15:50:39;18.10;39.70
8953;DHT22;4511;50.890;8.054;2023-04-03T15:53:06;18.20;39.60
8953;DHT22;4511;50.890;8.054;2023-04-03T15:55:35;17.70;39.40
8953;DHT22;4511;50.890;8.054;2023-04-03T15:58:03;17.00;40.00
8953;DHT22;4511;50.890;8.054;2023-04-03T16:00:31;16.00;41.50
8953;DHT22;4511;50.890;8.054;2023-04-03T16:03:00;16.40;42.30
8953;DHT22;4511;50.890;8.054;2023-04-03T16:05:31;17.20;40.90
8953;DHT22;4511;50.890;8.054;2023-04-03T16:07:59;17.80;39.90
8953;DHT22;4511;50.890;8.054;2023-04-03T16:10:27;18.40;39.90
8953;DHT22;4511;50.890;8.054;2023-04-03T16:12:55;18.50;38.40
8953;DHT22;4511;50.890;8.054;2023-04-03T16:15:22;19.10;38.80
8953;DHT22;4511;50.890;8.054;2023-04-03T16:17:50;19.60;38.60
8953;DHT22;4511;50.890;8.054;2023-04-03T16:20:17;19.80;43.30
8953;DHT22;4511;50.890;8.054;2023-04-03T16:22:47;20.00;38.00
8953;DHT22;4511;50.890;8.054;2023-04-03T16:25:14;19.90;37.50
8953;DHT22;4511;50.890;8.054;2023-04-03T16:27:41;19.90;37.40
8953;DHT22;4511;50.890;8.054;2023-04-03T16:30:08;20.60;37.40
8953;DHT22;4511;50.890;8.054;2023-04-03T16:32:36;21.40;36.70
8953;DHT22;4511;50.890;8.054;2023-04-03T16:35:04;21.60;35.30